sensor_id;sensor_type;location;lat;lon;timestamp;P1;durP1;ratioP1;P2;durP2;ratioP2
37379;SDS011;23252;-33.992;18.480;2023-07-02T00:02:02;66.38;;;47.78;;
37379;SDS011;23252;-33.992;18.480;2023-07-02T00:04:29;60.05;;;42.47;;
37379;SDS011;23252;-33.992;18.480;2023-07-02T00:06:55;48.45;;;36.63;;
37379;SDS011;23252;-33.992;18.480;2023-07-02T00:09:22;45.63;;;31.50;;
37379;SDS011;23252;-33.992;18.480;2023-07-02T00:11:48;42.63;;;29.33;;
37379;SDS011;23252;-33.992;18.480;2023-07-02T00:14:14;38.70;;;25.67;;
37379;SDS011;23252;-33.992;18.480;2023-07-02T00:16:43;36.30;;;25.58;;
37379;SDS011;23252;-33.992;18.480;2023-07-02T00:19:14;34.63;;;26.40;;
37379;SDS011;23252;-33.992;18.480;2023-07-02T00:21:41;35.95;;;26.55;;
37379;SDS011;23252;-33.992;18.480;2023-07-02T00:24:08;33.15;;;26.65;;
37379;SDS011;23252;-33.992;18.480;2023-07-02T00:26:35;32.10;;;24.15;;
37379;SDS011;23252;-33.992;18.480;2023-07-02T00:29:06;38.92;;;25.92;;
37379;SDS011;23252;-33.992;18.480;2023-07-02T00:31:34;37.53;;;26.85;;
37379;SDS011;23252;-33.992;18.480;2023-07-02T00:34:01;39.42;;;26.00;;
37379;SDS011;23252;-33.992;18.480;2023-07-02T00:36:29;38.30;;;26.67;;
37379;SDS011;23252;-33.992;18.480;2023-07-02T00:38:56;37.97;;;24.83;;
37379;SDS011;23252;-33.992;18.480;2023-07-02T00:41:23;52.60;;;30.02;;
37379;SDS011;23252;-33.992;18.480;2023-07-02T00:43:50;46.42;;;27.55;;
37379;SDS011;23252;-33.992;18.480;2023-07-02T00:46:20;33.90;;;22.35;;
37379;SDS011;23252;-33.992;18.480;2023-07-02T00:48:52;34.00;;;23.10;;
37379;SDS011;23252;-33.992;18.480;2023-07-02T00:51:23;34.60;;;21.38;;
37379;SDS011;23252;-33.992;18.480;2023-07-02T00:53:52;51.15;;;28.30;;
37379;SDS011;23252;-33.992;18.480;2023-07-02T00:56:20;38.88;;;25.17;;
37379;SDS011;23252;-33.992;18.480;2023-07-02T00:58:48;50.67;;;26.80;;
37379;SDS011;23252;-33.992;18.480;2023-07-02T01:01:21;53.65;;;27.55;;
37379;SDS011;23252;-33.992;18.480;2023-07-02T01:06:28;53.10;;;24.00;;
37379;SDS011;23252;-33.992;18.480;2023-07-02T01:08:57;42.53;;;24.10;;
37379;SDS011;23252;-33.992;18.480;2023-07-02T01:11:27;43.80;;;22.25;;
37379;SDS011;23252;-33.992;18.480;2023-07-02T01:14:04;49.97;;;25.35;;
37379;SDS011;23252;-33.992;18.480;2023-07-02T01:16:36;43.50;;;22.65;;
37379;SDS011;23252;-33.992;18.480;2023-07-02T01:19:05;48.35;;;21.70;;
37379;SDS011;23252;-33.992;18.480;2023-07-02T01:21:59;45.72;;;19.77;;
37379;SDS011;23252;-33.992;18.480;2023-07-02T01:24:27;40.45;;;19.65;;
37379;SDS011;23252;-33.992;18.480;2023-07-02T01:26:53;26.42;;;16.58;;
37379;SDS011;23252;-33.992;18.480;2023-07-02T01:29:21;43.92;;;21.23;;
37379;SDS011;23252;-33.992;18.480;2023-07-02T01:31:48;29.23;;;18.57;;
37379;SDS011;23252;-33.992;18.480;2023-07-02T01:34:14;33.30;;;20.42;;
37379;SDS011;23252;-33.992;18.480;2023-07-02T01:36:41;34.50;;;21.02;;
37379;SDS011;23252;-33.992;18.480;2023-07-02T01:39:07;42.17;;;24.20;;
37379;SDS011;23252;-33.992;18.480;2023-07-02T01:41:37;40.28;;;24.23;;
37379;SDS011;23252;-33.992;18.480;2023-07-02T01:44:11;35.20;;;23.38;;
37379;SDS011;23252;-33.992;18.480;2023-07-02T01:46:37;31.70;;;24.23;;
37379;SDS011;23252;-33.992;18.480;2023-07-02T01:49:04;35.27;;;25.37;;
37379;SDS011;23252;-33.992;18.480;2023-07-02T01:51:30;35.33;;;26.45;;
37379;SDS011;23252;-33.992;18.480;2023-07-02T01:53:57;35.93;;;26.37;;
37379;SDS011;23252;-33.992;18.480;2023-07-02T01:56:23;37.17;;;25.83;;
37379;SDS011;23252;-33.992;18.480;2023-07-02T01:58:50;38.38;;;26.83;;
37379;SDS011;23252;-33.992;18.480;2023-07-02T02:01:16;38.22;;;27.45;;
37379;SDS011;23252;-33.992;18.480;2023-07-02T02:03:43;32.77;;;23.47;;
37379;SDS011;23252;-33.992;18.480;2023-07-02T02:06:10;34.70;;;24.85;;
37379;SDS011;23252;-33.992;18.480;2023-07-02T02:08:36;32.90;;;24.73;;
37379;SDS011;23252;-33.992;18.480;2023-07-02T02:11:03;43.22;;;30.95;;
37379;SDS011;23252;-33.992;18.480;2023-07-02T02:13:29;39.20;;;28.00;;
37379;SDS011;23252;-33.992;18.480;2023-07-02T02:15:57;44.53;;;31.47;;
37379;SDS011;23252;-33.992;18.480;2023-07-02T02:18:23;44.80;;;30.63;;
37379;SDS011;23252;-33.992;18.480;2023-07-02T02:20:49;42.20;;;31.65;;
37379;SDS011;23252;-33.992;18.480;2023-07-02T02:23:16;41.30;;;29.80;;
37379;SDS011;23252;-33.992;18.480;2023-07-02T02:25:42;40.63;;;28.00;;
37379;SDS011;23252;-33.992;18.480;2023-07-02T02:28:09;33.85;;;25.50;;
37379;SDS011;23252;-33.992;18.480;2023-07-02T02:30:36;36.78;;;27.30;;
37379;SDS011;23252;-33.992;18.480;2023-07-02T02:33:02;35.92;;;25.95;;
37379;SDS011;23252;-33.992;18.480;2023-07-02T02:35:29;36.40;;;26.60;;
37379;SDS011;23252;-33.992;18.480;2023-07-02T02:37:55;33.72;;;25.63;;
37379;SDS011;23252;-33.992;18.480;2023-07-02T02:40:22;36.03;;;24.27;;
37379;SDS011;23252;-33.992;18.480;2023-07-02T02:42:48;33.63;;;24.02;;
37379;SDS011;23252;-33.992;18.480;2023-07-02T02:45:15;32.28;;;23.05;;
37379;SDS011;23252;-33.992;18.480;2023-07-02T02:47:41;29.97;;;22.27;;
37379;SDS011;23252;-33.992;18.480;2023-07-02T02:50:08;26.23;;;20.33;;
37379;SDS011;23252;-33.992;18.480;2023-07-02T02:52:35;27.55;;;18.90;;
37379;SDS011;23252;-33.992;18.480;2023-07-02T02:55:01;27.38;;;18.88;;
37379;SDS011;23252;-33.992;18.480;2023-07-02T02:57:28;26.40;;;19.70;;
37379;SDS011;23252;-33.992;18.480;2023-07-02T02:59:54;28.05;;;20.85;;
37379;SDS011;23252;-33.992;18.480;2023-07-02T03:02:21;29.48;;;21.90;;
37379;SDS011;23252;-33.992;18.480;2023-07-02T03:04:47;25.95;;;18.92;;
37379;SDS011;23252;-33.992;18.480;2023-07-02T03:07:15;28.83;;;19.38;;
37379;SDS011;23252;-33.992;18.480;2023-07-02T03:09:41;25.70;;;18.25;;
37379;SDS011;23252;-33.992;18.480;2023-07-02T03:12:08;22.00;;;15.48;;
37379;SDS011;23252;-33.992;18.480;2023-07-02T03:14:34;17.75;;;14.23;;
37379;SDS011;23252;-33.992;18.480;2023-07-02T03:17:01;20.95;;;14.43;;
37379;SDS011;23252;-33.992;18.480;2023-07-02T03:19:28;21.90;;;14.45;;
37379;SDS011;23252;-33.992;18.480;2023-07-02T03:21:54;20.30;;;14.45;;
37379;SDS011;23252;-33.992;18.480;2023-07-02T03:24:21;19.70;;;14.10;;
37379;SDS011;23252;-33.992;18.480;2023-07-02T03:26:47;19.17;;;13.63;;
37379;SDS011;23252;-33.992;18.480;2023-07-02T03:29:14;19.10;;;14.07;;
37379;SDS011;23252;-33.992;18.480;2023-07-02T03:31:41;18.35;;;12.48;;
37379;SDS011;23252;-33.992;18.480;2023-07-02T03:34:08;17.05;;;12.98;;
37379;SDS011;23252;-33.992;18.480;2023-07-02T03:36:36;18.23;;;12.30;;
37379;SDS011;23252;-33.992;18.480;2023-07-02T03:41:29;20.48;;;13.77;;
37379;SDS011;23252;-33.992;18.480;2023-07-02T03:43:56;19.67;;;13.70;;
37379;SDS011;23252;-33.992;18.480;2023-07-02T03:46:22;20.00;;;14.17;;
37379;SDS011;23252;-33.992;18.480;2023-07-02T03:48:49;20.15;;;14.10;;
37379;SDS011;23252;-33.992;18.480;2023-07-02T03:51:15;18.52;;;13.60;;
37379;SDS011;23252;-33.992;18.480;2023-07-02T03:53:42;18.33;;;12.82;;
37379;SDS011;23252;-33.992;18.480;2023-07-02T03:56:08;19.10;;;12.53;;
37379;SDS011;23252;-33.992;18.480;2023-07-02T03:58:35;18.43;;;13.13;;
37379;SDS011;23252;-33.992;18.480;2023-07-02T04:01:01;18.42;;;13.10;;
37379;SDS011;23252;-33.992;18.480;2023-07-02T04:03:28;18.98;;;13.55;;
37379;SDS011;23252;-33.992;18.480;2023-07-02T04:05:54;21.90;;;14.57;;
37379;SDS011;23252;-33.992;18.480;2023-07-02T04:08:21;21.90;;;15.07;;
37379;SDS011;23252;-33.992;18.480;2023-07-02T04:10:49;22.00;;;14.20;;
37379;SDS011;23252;-33.992;18.480;2023-07-02T04:13:16;20.57;;;14.37;;
37379;SDS011;23252;-33.992;18.480;2023-07-02T04:15:42;19.42;;;13.38;;
37379;SDS011;23252;-33.992;18.480;2023-07-02T04:18:09;14.75;;;11.13;;
37379;SDS011;23252;-33.992;18.480;2023-07-02T04:20:35;15.43;;;11.23;;
37379;SDS011;23252;-33.992;18.480;2023-07-02T04:23:06;27.35;;;15.32;;
37379;SDS011;23252;-33.992;18.480;2023-07-02T04:25:33;19.48;;;14.25;;
37379;SDS011;23252;-33.992;18.480;2023-07-02T04:28:00;22.77;;;15.43;;
37379;SDS011;23252;-33.992;18.480;2023-07-02T04:30:26;21.13;;;14.80;;
37379;SDS011;23252;-33.992;18.480;2023-07-02T04:32:52;25.10;;;15.30;;
37379;SDS011;23252;-33.992;18.480;2023-07-02T04:35:19;21.67;;;15.23;;
37379;SDS011;23252;-33.992;18.480;2023-07-02T04:37:48;23.77;;;16.73;;
37379;SDS011;23252;-33.992;18.480;2023-07-02T04:40:15;27.70;;;17.17;;
37379;SDS011;23252;-33.992;18.480;2023-07-02T04:42:42;24.25;;;15.23;;
37379;SDS011;23252;-33.992;18.480;2023-07-02T04:45:12;20.90;;;15.15;;
37379;SDS011;23252;-33.992;18.480;2023-07-02T04:47:43;23.20;;;14.90;;
37379;SDS011;23252;-33.992;18.480;2023-07-02T04:50:09;21.92;;;14.90;;
37379;SDS011;23252;-33.992;18.480;2023-07-02T04:52:37;19.77;;;14.25;;
37379;SDS011;23252;-33.992;18.480;2023-07-02T04:55:04;23.77;;;13.90;;
37379;SDS011;23252;-33.992;18.480;2023-07-02T04:59:57;19.63;;;13.88;;
37379;SDS011;23252;-33.992;18.480;2023-07-02T05:02:24;20.53;;;14.00;;
37379;SDS011;23252;-33.992;18.480;2023-07-02T05:04:50;25.10;;;18.10;;
37379;SDS011;23252;-33.992;18.480;2023-07-02T05:07:17;35.50;;;24.00;;
37379;SDS011;23252;-33.992;18.480;2023-07-02T05:09:43;38.75;;;23.13;;
37379;SDS011;23252;-33.992;18.480;2023-07-02T05:12:10;35.42;;;23.83;;
37379;SDS011;23252;-33.992;18.480;2023-07-02T05:14:36;34.05;;;23.10;;
37379;SDS011;23252;-33.992;18.480;2023-07-02T05:17:03;34.28;;;23.05;;
37379;SDS011;23252;-33.992;18.480;2023-07-02T05:19:29;32.40;;;20.30;;
37379;SDS011;23252;-33.992;18.480;2023-07-02T05:21:56;27.67;;;18.95;;
37379;SDS011;23252;-33.992;18.480;2023-07-02T05:24:22;28.17;;;18.65;;
37379;SDS011;23252;-33.992;18.480;2023-07-02T05:26:49;29.63;;;18.98;;
37379;SDS011;23252;-33.992;18.480;2023-07-02T05:29:16;27.77;;;18.17;;
37379;SDS011;23252;-33.992;18.480;2023-07-02T05:31:42;28.92;;;19.15;;
37379;SDS011;23252;-33.992;18.480;2023-07-02T05:34:12;26.80;;;17.83;;
37379;SDS011;23252;-33.992;18.480;2023-07-02T05:36:38;21.88;;;16.10;;
37379;SDS011;23252;-33.992;18.480;2023-07-02T05:39:05;23.88;;;16.35;;
37379;SDS011;23252;-33.992;18.480;2023-07-02T05:41:31;25.92;;;17.63;;
37379;SDS011;23252;-33.992;18.480;2023-07-02T05:43:58;23.77;;;16.67;;
37379;SDS011;23252;-33.992;18.480;2023-07-02T05:46:25;29.55;;;17.15;;
37379;SDS011;23252;-33.992;18.480;2023-07-02T05:48:52;25.50;;;17.20;;
37379;SDS011;23252;-33.992;18.480;2023-07-02T05:51:21;27.25;;;16.58;;
37379;SDS011;23252;-33.992;18.480;2023-07-02T05:53:54;25.33;;;16.05;;
37379;SDS011;23252;-33.992;18.480;2023-07-02T05:56:20;24.73;;;16.02;;
37379;SDS011;23252;-33.992;18.480;2023-07-02T05:58:48;22.77;;;16.20;;
37379;SDS011;23252;-33.992;18.480;2023-07-02T06:01:17;22.85;;;14.13;;
37379;SDS011;23252;-33.992;18.480;2023-07-02T06:03:48;19.48;;;13.30;;
37379;SDS011;23252;-33.992;18.480;2023-07-02T06:06:15;19.85;;;12.40;;
37379;SDS011;23252;-33.992;18.480;2023-07-02T06:08:42;19.80;;;13.30;;
37379;SDS011;23252;-33.992;18.480;2023-07-02T06:11:09;19.30;;;12.32;;
37379;SDS011;23252;-33.992;18.480;2023-07-02T06:13:36;16.50;;;10.80;;
37379;SDS011;23252;-33.992;18.480;2023-07-02T06:16:02;17.88;;;12.90;;
37379;SDS011;23252;-33.992;18.480;2023-07-02T06:18:29;20.75;;;14.85;;
37379;SDS011;23252;-33.992;18.480;2023-07-02T06:20:55;28.05;;;16.60;;
37379;SDS011;23252;-33.992;18.480;2023-07-02T06:23:22;22.58;;;17.23;;
37379;SDS011;23252;-33.992;18.480;2023-07-02T06:25:48;29.33;;;19.52;;
37379;SDS011;23252;-33.992;18.480;2023-07-02T06:28:18;28.52;;;17.67;;
37379;SDS011;23252;-33.992;18.480;2023-07-02T06:30:47;23.77;;;16.45;;
37379;SDS011;23252;-33.992;18.480;2023-07-02T06:33:14;26.07;;;17.10;;
37379;SDS011;23252;-33.992;18.480;2023-07-02T06:35:41;23.30;;;16.88;;
37379;SDS011;23252;-33.992;18.480;2023-07-02T06:38:07;23.02;;;15.63;;
37379;SDS011;23252;-33.992;18.480;2023-07-02T06:40:33;25.65;;;16.90;;
37379;SDS011;23252;-33.992;18.480;2023-07-02T06:43:00;26.70;;;17.88;;
37379;SDS011;23252;-33.992;18.480;2023-07-02T06:45:26;28.60;;;16.75;;
37379;SDS011;23252;-33.992;18.480;2023-07-02T06:47:53;22.35;;;14.77;;
37379;SDS011;23252;-33.992;18.480;2023-07-02T06:50:22;24.85;;;15.77;;
37379;SDS011;23252;-33.992;18.480;2023-07-02T06:52:49;24.23;;;14.75;;
37379;SDS011;23252;-33.992;18.480;2023-07-02T06:55:15;22.60;;;15.38;;
37379;SDS011;23252;-33.992;18.480;2023-07-02T06:57:42;19.63;;;15.07;;
37379;SDS011;23252;-33.992;18.480;2023-07-02T07:00:12;23.30;;;15.75;;
37379;SDS011;23252;-33.992;18.480;2023-07-02T07:02:40;23.02;;;16.02;;
37379;SDS011;23252;-33.992;18.480;2023-07-02T07:05:06;25.88;;;17.05;;
37379;SDS011;23252;-33.992;18.480;2023-07-02T07:07:34;20.73;;;15.60;;
37379;SDS011;23252;-33.992;18.480;2023-07-02T07:10:00;21.02;;;15.45;;
37379;SDS011;23252;-33.992;18.480;2023-07-02T07:12:27;22.40;;;15.13;;
37379;SDS011;23252;-33.992;18.480;2023-07-02T07:14:53;21.13;;;15.65;;
37379;SDS011;23252;-33.992;18.480;2023-07-02T07:17:20;21.65;;;13.40;;
37379;SDS011;23252;-33.992;18.480;2023-07-02T07:19:46;22.10;;;13.17;;
37379;SDS011;23252;-33.992;18.480;2023-07-02T07:22:13;23.65;;;13.38;;
37379;SDS011;23252;-33.992;18.480;2023-07-02T07:24:41;21.27;;;13.77;;
37379;SDS011;23252;-33.992;18.480;2023-07-02T07:27:07;19.15;;;11.85;;
37379;SDS011;23252;-33.992;18.480;2023-07-02T07:29:34;20.47;;;11.00;;
37379;SDS011;23252;-33.992;18.480;2023-07-02T07:32:00;22.52;;;10.52;;
37379;SDS011;23252;-33.992;18.480;2023-07-02T07:34:27;19.07;;;9.67;;
37379;SDS011;23252;-33.992;18.480;2023-07-02T07:36:53;21.80;;;11.80;;
37379;SDS011;23252;-33.992;18.480;2023-07-02T07:39:20;19.57;;;10.53;;
37379;SDS011;23252;-33.992;18.480;2023-07-02T07:41:46;22.13;;;11.27;;
37379;SDS011;23252;-33.992;18.480;2023-07-02T07:44:16;20.88;;;10.07;;
37379;SDS011;23252;-33.992;18.480;2023-07-02T07:46:43;18.10;;;8.80;;
37379;SDS011;23252;-33.992;18.480;2023-07-02T07:49:09;18.40;;;8.73;;
37379;SDS011;23252;-33.992;18.480;2023-07-02T07:51:36;20.73;;;8.77;;
37379;SDS011;23252;-33.992;18.480;2023-07-02T07:54:02;18.35;;;8.55;;
37379;SDS011;23252;-33.992;18.480;2023-07-02T07:56:29;17.33;;;7.82;;
37379;SDS011;23252;-33.992;18.480;2023-07-02T07:58:56;16.20;;;6.53;;
37379;SDS011;23252;-33.992;18.480;2023-07-02T08:01:25;12.48;;;5.53;;
37379;SDS011;23252;-33.992;18.480;2023-07-02T08:03:53;11.73;;;5.95;;
37379;SDS011;23252;-33.992;18.480;2023-07-02T08:06:19;13.70;;;5.90;;
37379;SDS011;23252;-33.992;18.480;2023-07-02T08:08:46;17.33;;;6.25;;
37379;SDS011;23252;-33.992;18.480;2023-07-02T08:11:12;10.23;;;5.37;;
37379;SDS011;23252;-33.992;18.480;2023-07-02T08:13:39;13.80;;;5.30;;
37379;SDS011;23252;-33.992;18.480;2023-07-02T08:16:06;11.90;;;6.20;;
37379;SDS011;23252;-33.992;18.480;2023-07-02T08:18:34;12.57;;;6.07;;
37379;SDS011;23252;-33.992;18.480;2023-07-02T08:21:01;15.73;;;7.17;;
37379;SDS011;23252;-33.992;18.480;2023-07-02T08:23:27;12.80;;;6.63;;
37379;SDS011;23252;-33.992;18.480;2023-07-02T08:26:00;13.57;;;6.70;;
37379;SDS011;23252;-33.992;18.480;2023-07-02T08:28:28;13.80;;;7.20;;
37379;SDS011;23252;-33.992;18.480;2023-07-02T08:30:55;13.30;;;6.63;;
37379;SDS011;23252;-33.992;18.480;2023-07-02T08:33:25;11.13;;;4.90;;
37379;SDS011;23252;-33.992;18.480;2023-07-02T08:35:51;12.47;;;5.83;;
37379;SDS011;23252;-33.992;18.480;2023-07-02T08:38:18;15.43;;;5.77;;
37379;SDS011;23252;-33.992;18.480;2023-07-02T08:40:44;13.23;;;6.20;;
37379;SDS011;23252;-33.992;18.480;2023-07-02T08:43:11;13.65;;;7.45;;
37379;SDS011;23252;-33.992;18.480;2023-07-02T08:45:39;14.73;;;7.47;;
37379;SDS011;23252;-33.992;18.480;2023-07-02T08:48:07;20.73;;;8.13;;
37379;SDS011;23252;-33.992;18.480;2023-07-02T08:50:34;13.27;;;6.15;;
37379;SDS011;23252;-33.992;18.480;2023-07-02T08:53:01;8.60;;;3.57;;
37379;SDS011;23252;-33.992;18.480;2023-07-02T08:55:27;9.77;;;4.37;;
37379;SDS011;23252;-33.992;18.480;2023-07-02T08:57:57;8.07;;;4.28;;
37379;SDS011;23252;-33.992;18.480;2023-07-02T09:00:25;10.00;;;3.08;;
37379;SDS011;23252;-33.992;18.480;2023-07-02T09:02:52;8.10;;;3.78;;
37379;SDS011;23252;-33.992;18.480;2023-07-02T09:05:18;7.67;;;2.87;;
37379;SDS011;23252;-33.992;18.480;2023-07-02T09:07:45;9.53;;;3.30;;
37379;SDS011;23252;-33.992;18.480;2023-07-02T09:10:25;13.95;;;4.93;;
37379;SDS011;23252;-33.992;18.480;2023-07-02T09:13:05;9.25;;;3.80;;
37379;SDS011;23252;-33.992;18.480;2023-07-02T09:18:02;13.38;;;3.95;;
37379;SDS011;23252;-33.992;18.480;2023-07-02T09:20:39;10.20;;;4.20;;
37379;SDS011;23252;-33.992;18.480;2023-07-02T09:23:06;7.90;;;3.30;;
37379;SDS011;23252;-33.992;18.480;2023-07-02T09:25:39;7.97;;;3.30;;
37379;SDS011;23252;-33.992;18.480;2023-07-02T09:28:16;7.30;;;3.47;;
37379;SDS011;23252;-33.992;18.480;2023-07-02T09:33:29;8.30;;;3.67;;
37379;SDS011;23252;-33.992;18.480;2023-07-02T09:35:56;9.15;;;2.33;;
37379;SDS011;23252;-33.992;18.480;2023-07-02T09:38:23;6.83;;;2.50;;
37379;SDS011;23252;-33.992;18.480;2023-07-02T09:40:50;10.17;;;2.30;;
37379;SDS011;23252;-33.992;18.480;2023-07-02T09:43:18;6.60;;;2.35;;
37379;SDS011;23252;-33.992;18.480;2023-07-02T09:45:48;5.80;;;1.92;;
37379;SDS011;23252;-33.992;18.480;2023-07-02T09:48:17;7.30;;;2.75;;
37379;SDS011;23252;-33.992;18.480;2023-07-02T09:50:45;9.23;;;2.25;;
37379;SDS011;23252;-33.992;18.480;2023-07-02T09:53:13;8.48;;;2.78;;
37379;SDS011;23252;-33.992;18.480;2023-07-02T09:55:41;8.55;;;3.78;;
37379;SDS011;23252;-33.992;18.480;2023-07-02T09:58:08;5.47;;;1.40;;
37379;SDS011;23252;-33.992;18.480;2023-07-02T10:00:37;9.00;;;1.58;;
37379;SDS011;23252;-33.992;18.480;2023-07-02T10:03:06;4.18;;;1.35;;
37379;SDS011;23252;-33.992;18.480;2023-07-02T10:05:33;9.03;;;1.40;;
37379;SDS011;23252;-33.992;18.480;2023-07-02T10:08:13;7.68;;;2.22;;
37379;SDS011;23252;-33.992;18.480;2023-07-02T10:10:42;6.85;;;1.40;;
37379;SDS011;23252;-33.992;18.480;2023-07-02T10:13:08;8.85;;;1.50;;
37379;SDS011;23252;-33.992;18.480;2023-07-02T10:15:35;7.03;;;1.55;;
37379;SDS011;23252;-33.992;18.480;2023-07-02T10:18:05;6.05;;;1.50;;
37379;SDS011;23252;-33.992;18.480;2023-07-02T10:20:33;10.80;;;1.70;;
37379;SDS011;23252;-33.992;18.480;2023-07-02T10:23:04;4.47;;;1.70;;
37379;SDS011;23252;-33.992;18.480;2023-07-02T10:25:32;7.57;;;2.00;;
37379;SDS011;23252;-33.992;18.480;2023-07-02T10:28:13;8.30;;;2.15;;
37379;SDS011;23252;-33.992;18.480;2023-07-02T10:30:44;7.57;;;2.20;;
37379;SDS011;23252;-33.992;18.480;2023-07-02T10:33:12;6.03;;;2.53;;
37379;SDS011;23252;-33.992;18.480;2023-07-02T10:35:40;3.78;;;1.67;;
37379;SDS011;23252;-33.992;18.480;2023-07-02T10:38:24;6.43;;;1.90;;
37379;SDS011;23252;-33.992;18.480;2023-07-02T10:40:58;6.22;;;2.08;;
37379;SDS011;23252;-33.992;18.480;2023-07-02T10:43:29;6.53;;;2.25;;
37379;SDS011;23252;-33.992;18.480;2023-07-02T10:45:58;6.93;;;1.92;;
37379;SDS011;23252;-33.992;18.480;2023-07-02T10:48:25;8.15;;;1.80;;
37379;SDS011;23252;-33.992;18.480;2023-07-02T10:50:52;6.90;;;2.20;;
37379;SDS011;23252;-33.992;18.480;2023-07-02T10:53:18;9.07;;;2.20;;
37379;SDS011;23252;-33.992;18.480;2023-07-02T10:58:19;6.47;;;1.98;;
37379;SDS011;23252;-33.992;18.480;2023-07-02T11:00:46;7.13;;;2.20;;
37379;SDS011;23252;-33.992;18.480;2023-07-02T11:03:24;9.50;;;2.20;;
37379;SDS011;23252;-33.992;18.480;2023-07-02T11:05:52;7.93;;;2.00;;
37379;SDS011;23252;-33.992;18.480;2023-07-02T11:08:19;7.75;;;2.30;;
37379;SDS011;23252;-33.992;18.480;2023-07-02T11:10:46;5.88;;;1.95;;
37379;SDS011;23252;-33.992;18.480;2023-07-02T11:13:16;8.07;;;2.17;;
37379;SDS011;23252;-33.992;18.480;2023-07-02T11:15:44;7.97;;;2.40;;
37379;SDS011;23252;-33.992;18.480;2023-07-02T11:18:17;11.25;;;3.17;;
37379;SDS011;23252;-33.992;18.480;2023-07-02T11:20:47;7.15;;;2.30;;
37379;SDS011;23252;-33.992;18.480;2023-07-02T11:23:20;7.15;;;2.10;;
37379;SDS011;23252;-33.992;18.480;2023-07-02T11:25:57;7.45;;;2.45;;
37379;SDS011;23252;-33.992;18.480;2023-07-02T11:28:28;6.28;;;2.40;;
37379;SDS011;23252;-33.992;18.480;2023-07-02T11:30:56;7.03;;;2.20;;
37379;SDS011;23252;-33.992;18.480;2023-07-02T11:33:34;4.07;;;2.05;;
37379;SDS011;23252;-33.992;18.480;2023-07-02T11:36:06;11.20;;;2.20;;
37379;SDS011;23252;-33.992;18.480;2023-07-02T11:38:45;7.03;;;1.90;;
37379;SDS011;23252;-33.992;18.480;2023-07-02T11:41:12;6.80;;;2.75;;
37379;SDS011;23252;-33.992;18.480;2023-07-02T11:43:38;7.95;;;2.08;;
37379;SDS011;23252;-33.992;18.480;2023-07-02T11:46:05;8.57;;;2.28;;
37379;SDS011;23252;-33.992;18.480;2023-07-02T11:48:31;7.95;;;2.28;;
37379;SDS011;23252;-33.992;18.480;2023-07-02T11:50:58;9.30;;;2.00;;
37379;SDS011;23252;-33.992;18.480;2023-07-02T11:53:25;9.57;;;1.83;;
37379;SDS011;23252;-33.992;18.480;2023-07-02T11:55:51;11.35;;;1.70;;
37379;SDS011;23252;-33.992;18.480;2023-07-02T11:58:18;11.23;;;2.05;;
37379;SDS011;23252;-33.992;18.480;2023-07-02T12:00:44;6.45;;;1.90;;
37379;SDS011;23252;-33.992;18.480;2023-07-02T12:03:11;9.18;;;1.95;;
37379;SDS011;23252;-33.992;18.480;2023-07-02T12:05:40;7.50;;;1.75;;
37379;SDS011;23252;-33.992;18.480;2023-07-02T12:08:06;8.55;;;1.88;;
37379;SDS011;23252;-33.992;18.480;2023-07-02T12:10:33;7.47;;;1.90;;
37379;SDS011;23252;-33.992;18.480;2023-07-02T12:13:00;8.65;;;1.95;;
37379;SDS011;23252;-33.992;18.480;2023-07-02T12:15:27;8.38;;;2.33;;
37379;SDS011;23252;-33.992;18.480;2023-07-02T12:17:53;6.63;;;1.80;;
37379;SDS011;23252;-33.992;18.480;2023-07-02T12:20:20;5.07;;;1.50;;
37379;SDS011;23252;-33.992;18.480;2023-07-02T12:22:46;6.40;;;1.80;;
37379;SDS011;23252;-33.992;18.480;2023-07-02T12:25:13;5.53;;;2.00;;
37379;SDS011;23252;-33.992;18.480;2023-07-02T12:27:40;6.55;;;1.67;;
37379;SDS011;23252;-33.992;18.480;2023-07-02T12:30:06;7.85;;;1.60;;
37379;SDS011;23252;-33.992;18.480;2023-07-02T12:32:34;7.85;;;2.08;;
37379;SDS011;23252;-33.992;18.480;2023-07-02T12:35:00;7.85;;;1.98;;
37379;SDS011;23252;-33.992;18.480;2023-07-02T12:37:27;3.33;;;1.70;;
37379;SDS011;23252;-33.992;18.480;2023-07-02T12:39:53;5.80;;;1.60;;
37379;SDS011;23252;-33.992;18.480;2023-07-02T12:42:20;7.63;;;1.80;;
37379;SDS011;23252;-33.992;18.480;2023-07-02T12:44:46;7.32;;;1.50;;
37379;SDS011;23252;-33.992;18.480;2023-07-02T12:47:13;5.88;;;1.77;;
37379;SDS011;23252;-33.992;18.480;2023-07-02T12:49:43;6.38;;;1.52;;
37379;SDS011;23252;-33.992;18.480;2023-07-02T12:52:09;5.53;;;1.60;;
37379;SDS011;23252;-33.992;18.480;2023-07-02T12:54:36;8.70;;;1.75;;
37379;SDS011;23252;-33.992;18.480;2023-07-02T12:57:02;5.73;;;1.97;;
37379;SDS011;23252;-33.992;18.480;2023-07-02T12:59:29;10.63;;;2.10;;
37379;SDS011;23252;-33.992;18.480;2023-07-02T13:01:56;6.47;;;2.03;;
37379;SDS011;23252;-33.992;18.480;2023-07-02T13:04:22;5.63;;;2.40;;
37379;SDS011;23252;-33.992;18.480;2023-07-02T13:06:49;5.00;;;1.77;;
37379;SDS011;23252;-33.992;18.480;2023-07-02T13:09:15;9.15;;;2.78;;
37379;SDS011;23252;-33.992;18.480;2023-07-02T13:11:42;7.38;;;1.90;;
37379;SDS011;23252;-33.992;18.480;2023-07-02T13:14:11;5.75;;;1.85;;
37379;SDS011;23252;-33.992;18.480;2023-07-02T13:16:38;4.35;;;1.70;;
37379;SDS011;23252;-33.992;18.480;2023-07-02T13:19:04;7.63;;;2.00;;
37379;SDS011;23252;-33.992;18.480;2023-07-02T13:21:31;3.70;;;1.65;;
37379;SDS011;23252;-33.992;18.480;2023-07-02T13:23:57;8.37;;;2.13;;
37379;SDS011;23252;-33.992;18.480;2023-07-02T13:26:24;6.20;;;1.50;;
37379;SDS011;23252;-33.992;18.480;2023-07-02T13:28:51;4.72;;;1.70;;
37379;SDS011;23252;-33.992;18.480;2023-07-02T13:31:17;4.95;;;1.90;;
37379;SDS011;23252;-33.992;18.480;2023-07-02T13:33:44;6.35;;;2.35;;
37379;SDS011;23252;-33.992;18.480;2023-07-02T13:36:14;10.35;;;2.10;;
37379;SDS011;23252;-33.992;18.480;2023-07-02T13:38:41;9.07;;;2.42;;
37379;SDS011;23252;-33.992;18.480;2023-07-02T13:41:08;8.13;;;2.33;;
37379;SDS011;23252;-33.992;18.480;2023-07-02T13:43:34;8.23;;;1.67;;
37379;SDS011;23252;-33.992;18.480;2023-07-02T13:46:01;6.10;;;1.40;;
37379;SDS011;23252;-33.992;18.480;2023-07-02T13:48:28;6.82;;;1.27;;
37379;SDS011;23252;-33.992;18.480;2023-07-02T13:50:55;10.03;;;1.37;;
37379;SDS011;23252;-33.992;18.480;2023-07-02T13:53:22;5.03;;;1.55;;
37379;SDS011;23252;-33.992;18.480;2023-07-02T13:55:48;3.80;;;1.17;;
37379;SDS011;23252;-33.992;18.480;2023-07-02T13:58:15;3.47;;;1.05;;
37379;SDS011;23252;-33.992;18.480;2023-07-02T14:00:41;4.87;;;1.60;;
37379;SDS011;23252;-33.992;18.480;2023-07-02T14:03:08;4.65;;;1.08;;
37379;SDS011;23252;-33.992;18.480;2023-07-02T14:05:34;5.97;;;1.30;;
37379;SDS011;23252;-33.992;18.480;2023-07-02T14:08:01;5.60;;;1.60;;
37379;SDS011;23252;-33.992;18.480;2023-07-02T14:10:27;5.07;;;1.40;;
37379;SDS011;23252;-33.992;18.480;2023-07-02T14:12:54;6.15;;;1.65;;
37379;SDS011;23252;-33.992;18.480;2023-07-02T14:15:21;8.43;;;1.45;;
37379;SDS011;23252;-33.992;18.480;2023-07-02T14:17:50;6.35;;;1.58;;
37379;SDS011;23252;-33.992;18.480;2023-07-02T14:20:16;5.65;;;1.60;;
37379;SDS011;23252;-33.992;18.480;2023-07-02T14:22:43;4.50;;;1.52;;
37379;SDS011;23252;-33.992;18.480;2023-07-02T14:25:10;10.43;;;1.93;;